sensor_id;sensor_type;location;lat;lon;timestamp;temperature;humidity
45233;DHT22;30969;51.052;17.056;2023-08-24T00:03:18;23.90;41.60
45233;DHT22;30969;51.052;17.056;2023-08-24T00:08:23;23.80;41.90
45233;DHT22;30969;51.052;17.056;2023-08-24T00:13:28;23.80;41.90
45233;DHT22;30969;51.052;17.056;2023-08-24T00:18:32;23.70;42.20
45233;DHT22;30969;51.052;17.056;2023-08-24T00:23:35;23.60;42.30
45233;DHT22;30969;51.052;17.056;2023-08-24T00:28:40;23.50;42.60
45233;DHT22;30969;51.052;17.056;2023-08-24T00:33:44;23.50;42.90
45233;DHT22;30969;51.052;17.056;2023-08-24T00:38:47;23.40;43.00
45233;DHT22;30969;51.052;17.056;2023-08-24T00:43:54;23.30;43.10
45233;DHT22;30969;51.052;17.056;2023-08-24T00:48:58;23.30;43.30
45233;DHT22;30969;51.052;17.056;2023-08-24T00:54:01;23.20;43.40
45233;DHT22;30969;51.052;17.056;2023-08-24T00:59:06;23.10;43.50
45233;DHT22;30969;51.052;17.056;2023-08-24T01:04:10;23.10;43.70
45233;DHT22;30969;51.052;17.056;2023-08-24T01:09:13;23.00;44.00
45233;DHT22;30969;51.052;17.056;2023-08-24T01:14:21;22.90;44.50
45233;DHT22;30969;51.052;17.056;2023-08-24T01:19:32;22.90;44.90
45233;DHT22;30969;51.052;17.056;2023-08-24T01:24:38;22.80;45.10
45233;DHT22;30969;51.052;17.056;2023-08-24T01:29:44;22.80;45.10
45233;DHT22;30969;51.052;17.056;2023-08-24T01:34:48;22.70;45.10
45233;DHT22;30969;51.052;17.056;2023-08-24T01:39:53;22.60;46.50
45233;DHT22;30969;51.052;17.056;2023-08-24T01:45:01;22.60;46.20
45233;DHT22;30969;51.052;17.056;2023-08-24T01:50:06;22.50;45.80
45233;DHT22;30969;51.052;17.056;2023-08-24T01:55:10;22.50;45.70
45233;DHT22;30969;51.052;17.056;2023-08-24T02:00:15;22.50;45.70
45233;DHT22;30969;51.052;17.056;2023-08-24T02:05:19;22.40;45.90
45233;DHT22;30969;51.052;17.056;2023-08-24T02:10:22;22.40;46.10
45233;DHT22;30969;51.052;17.056;2023-08-24T02:15:27;22.30;46.00
45233;DHT22;30969;51.052;17.056;2023-08-24T02:20:34;22.30;46.20
45233;DHT22;30969;51.052;17.056;2023-08-24T02:25:41;22.30;46.30
45233;DHT22;30969;51.052;17.056;2023-08-24T02:30:46;22.20;46.40
45233;DHT22;30969;51.052;17.056;2023-08-24T02:35:49;22.20;46.50
45233;DHT22;30969;51.052;17.056;2023-08-24T02:40:59;22.20;46.60
45233;DHT22;30969;51.052;17.056;2023-08-24T02:46:04;22.10;46.90
45233;DHT22;30969;51.052;17.056;2023-08-24T02:51:08;22.10;46.90
45233;DHT22;30969;51.052;17.056;2023-08-24T02:56:11;22.10;46.90
45233;DHT22;30969;51.052;17.056;2023-08-24T03:01:16;22.10;47.10
45233;DHT22;30969;51.052;17.056;2023-08-24T03:06:20;22.00;47.20
45233;DHT22;30969;51.052;17.056;2023-08-24T03:11:25;22.00;47.90
45233;DHT22;30969;51.052;17.056;2023-08-24T03:16:30;22.00;49.10
45233;DHT22;30969;51.052;17.056;2023-08-24T03:21:34;22.00;49.30
45233;DHT22;30969;51.052;17.056;2023-08-24T03:26:37;22.00;49.50
45233;DHT22;30969;51.052;17.056;2023-08-24T03:31:42;22.00;49.60
45233;DHT22;30969;51.052;17.056;2023-08-24T03:36:45;21.90;48.70
45233;DHT22;30969;51.052;17.056;2023-08-24T03:41:49;21.90;48.60
45233;DHT22;30969;51.052;17.056;2023-08-24T03:46:54;21.80;48.30
45233;DHT22;30969;51.052;17.056;2023-08-24T03:51:57;21.80;48.50
45233;DHT22;30969;51.052;17.056;2023-08-24T03:57:01;21.70;48.90
45233;DHT22;30969;51.052;17.056;2023-08-24T04:02:05;21.70;49.60
45233;DHT22;30969;51.052;17.056;2023-08-24T04:07:09;21.70;50.10
45233;DHT22;30969;51.052;17.056;2023-08-24T04:12:12;21.70;49.90
45233;DHT22;30969;51.052;17.056;2023-08-24T04:17:17;21.60;49.50
45233;DHT22;30969;51.052;17.056;2023-08-24T04:22:20;21.60;49.20
45233;DHT22;30969;51.052;17.056;2023-08-24T04:27:23;21.50;49.30
45233;DHT22;30969;51.052;17.056;2023-08-24T04:32:28;21.50;49.80
45233;DHT22;30969;51.052;17.056;2023-08-24T04:37:32;21.40;50.40
45233;DHT22;30969;51.052;17.056;2023-08-24T04:42:35;21.40;51.10
45233;DHT22;30969;51.052;17.056;2023-08-24T04:47:40;21.40;52.10
45233;DHT22;30969;51.052;17.056;2023-08-24T04:52:43;21.40;52.20
45233;DHT22;30969;51.052;17.056;2023-08-24T04:57:47;21.40;52.10
45233;DHT22;30969;51.052;17.056;2023-08-24T05:02:52;21.40;51.60
45233;DHT22;30969;51.052;17.056;2023-08-24T05:07:55;21.30;52.30
45233;DHT22;30969;51.052;17.056;2023-08-24T05:12:59;21.40;53.40
45233;DHT22;30969;51.052;17.056;2023-08-24T05:18:04;21.30;52.70
45233;DHT22;30969;51.052;17.056;2023-08-24T05:23:07;21.30;53.00
45233;DHT22;30969;51.052;17.056;2023-08-24T05:28:10;21.40;52.90
45233;DHT22;30969;51.052;17.056;2023-08-24T05:33:15;21.40;53.20
45233;DHT22;30969;51.052;17.056;2023-08-24T05:38:19;21.40;53.30
45233;DHT22;30969;51.052;17.056;2023-08-24T05:43:22;21.50;54.00
45233;DHT22;30969;51.052;17.056;2023-08-24T05:48:27;21.50;54.50
45233;DHT22;30969;51.052;17.056;2023-08-24T05:53:31;21.50;54.30
45233;DHT22;30969;51.052;17.056;2023-08-24T05:58:34;21.50;54.40
45233;DHT22;30969;51.052;17.056;2023-08-24T06:03:39;21.60;54.40
45233;DHT22;30969;51.052;17.056;2023-08-24T06:08:42;21.60;55.00
45233;DHT22;30969;51.052;17.056;2023-08-24T06:13:46;21.60;55.00
45233;DHT22;30969;51.052;17.056;2023-08-24T06:18:50;21.70;54.90
45233;DHT22;30969;51.052;17.056;2023-08-24T06:23:54;21.70;55.00
45233;DHT22;30969;51.052;17.056;2023-08-24T06:28:57;21.70;55.00
45233;DHT22;30969;51.052;17.056;2023-08-24T06:34:02;21.80;54.80
45233;DHT22;30969;51.052;17.056;2023-08-24T06:39:05;21.80;55.00
45233;DHT22;30969;51.052;17.056;2023-08-24T06:44:09;21.90;55.00
45233;DHT22;30969;51.052;17.056;2023-08-24T06:49:14;21.90;55.40
45233;DHT22;30969;51.052;17.056;2023-08-24T06:54:17;22.00;55.20
45233;DHT22;30969;51.052;17.056;2023-08-24T06:59:21;22.00;55.30
45233;DHT22;30969;51.052;17.056;2023-08-24T07:04:26;22.10;55.10
45233;DHT22;30969;51.052;17.056;2023-08-24T07:09:29;22.10;54.70
45233;DHT22;30969;51.052;17.056;2023-08-24T07:14:33;22.20;55.00
45233;DHT22;30969;51.052;17.056;2023-08-24T07:19:37;22.20;54.80
45233;DHT22;30969;51.052;17.056;2023-08-24T07:24:41;22.30;55.00
45233;DHT22;30969;51.052;17.056;2023-08-24T07:29:47;22.30;55.00
45233;DHT22;30969;51.052;17.056;2023-08-24T07:34:52;22.40;55.20
45233;DHT22;30969;51.052;17.056;2023-08-24T07:39:56;22.40;54.90
45233;DHT22;30969;51.052;17.056;2023-08-24T07:44:59;22.50;54.80
45233;DHT22;30969;51.052;17.056;2023-08-24T07:50:04;22.50;54.80
45233;DHT22;30969;51.052;17.056;2023-08-24T07:55:08;22.60;54.90
45233;DHT22;30969;51.052;17.056;2023-08-24T08:00:12;22.70;54.80
45233;DHT22;30969;51.052;17.056;2023-08-24T08:05:17;22.70;54.60
45233;DHT22;30969;51.052;17.056;2023-08-24T08:10:21;22.90;54.50
45233;DHT22;30969;51.052;17.056;2023-08-24T08:15:24;22.90;54.30
45233;DHT22;30969;51.052;17.056;2023-08-24T08:20:29;22.90;54.00
45233;DHT22;30969;51.052;17.056;2023-08-24T08:25:33;23.00;53.80
45233;DHT22;30969;51.052;17.056;2023-08-24T08:30:36;23.00;53.80
45233;DHT22;30969;51.052;17.056;2023-08-24T08:35:41;23.10;53.70
45233;DHT22;30969;51.052;17.056;2023-08-24T08:40:45;23.20;53.60
45233;DHT22;30969;51.052;17.056;2023-08-24T08:45:49;23.20;53.30
45233;DHT22;30969;51.052;17.056;2023-08-24T08:50:54;23.30;54.20
45233;DHT22;30969;51.052;17.056;2023-08-24T08:55:58;23.30;53.00
45233;DHT22;30969;51.052;17.056;2023-08-24T09:01:05;23.40;52.80
45233;DHT22;30969;51.052;17.056;2023-08-24T09:06:11;23.50;52.80
45233;DHT22;30969;51.052;17.056;2023-08-24T09:11:14;23.50;52.50
45233;DHT22;30969;51.052;17.056;2023-08-24T09:16:19;23.60;52.40
45233;DHT22;30969;51.052;17.056;2023-08-24T09:21:24;23.60;52.20
45233;DHT22;30969;51.052;17.056;2023-08-24T09:26:28;23.70;52.10
45233;DHT22;30969;51.052;17.056;2023-08-24T09:31:34;23.80;51.80
45233;DHT22;30969;51.052;17.056;2023-08-24T09:36:40;23.80;51.80
45233;DHT22;30969;51.052;17.056;2023-08-24T09:41:45;23.90;51.40
45233;DHT22;30969;51.052;17.056;2023-08-24T09:46:49;23.90;51.30
45233;DHT22;30969;51.052;17.056;2023-08-24T09:51:54;24.00;51.20
45233;DHT22;30969;51.052;17.056;2023-08-24T09:56:58;24.00;51.10
45233;DHT22;30969;51.052;17.056;2023-08-24T10:02:03;24.10;50.90
45233;DHT22;30969;51.052;17.056;2023-08-24T10:07:10;24.20;50.90
45233;DHT22;30969;51.052;17.056;2023-08-24T10:12:17;24.20;50.90
45233;DHT22;30969;51.052;17.056;2023-08-24T10:17:22;24.30;50.90
45233;DHT22;30969;51.052;17.056;2023-08-24T10:22:27;24.40;50.80
45233;DHT22;30969;51.052;17.056;2023-08-24T10:27:31;24.40;50.80
45233;DHT22;30969;51.052;17.056;2023-08-24T10:32:34;24.50;50.80
45233;DHT22;30969;51.052;17.056;2023-08-24T10:37:39;24.60;50.60
45233;DHT22;30969;51.052;17.056;2023-08-24T10:42:43;24.60;50.40
45233;DHT22;30969;51.052;17.056;2023-08-24T10:47:48;24.70;50.60
45233;DHT22;30969;51.052;17.056;2023-08-24T10:52:57;24.80;50.40
45233;DHT22;30969;51.052;17.056;2023-08-24T10:58:02;24.90;50.10
45233;DHT22;30969;51.052;17.056;2023-08-24T11:03:05;25.00;49.70
45233;DHT22;30969;51.052;17.056;2023-08-24T11:08:10;25.10;49.60
45233;DHT22;30969;51.052;17.056;2023-08-24T11:13:14;25.20;49.20
45233;DHT22;30969;51.052;17.056;2023-08-24T11:18:21;25.30;48.80
45233;DHT22;30969;51.052;17.056;2023-08-24T11:23:27;25.40;48.90
45233;DHT22;30969;51.052;17.056;2023-08-24T11:28:30;25.50;48.60
45233;DHT22;30969;51.052;17.056;2023-08-24T11:33:34;25.60;48.10
45233;DHT22;30969;51.052;17.056;2023-08-24T11:38:39;25.70;47.90
45233;DHT22;30969;51.052;17.056;2023-08-24T11:43:44;25.80;47.60
45233;DHT22;30969;51.052;17.056;2023-08-24T11:48:47;25.90;48.00
45233;DHT22;30969;51.052;17.056;2023-08-24T11:53:52;26.10;47.90
45233;DHT22;30969;51.052;17.056;2023-08-24T11:58:55;26.20;47.80
45233;DHT22;30969;51.052;17.056;2023-08-24T12:03:59;26.30;47.90
45233;DHT22;30969;51.052;17.056;2023-08-24T12:09:05;26.50;47.40
45233;DHT22;30969;51.052;17.056;2023-08-24T12:14:16;26.60;47.00
45233;DHT22;30969;51.052;17.056;2023-08-24T12:19:20;26.70;46.40
45233;DHT22;30969;51.052;17.056;2023-08-24T12:24:25;26.80;45.80
45233;DHT22;30969;51.052;17.056;2023-08-24T12:29:30;26.90;45.40
45233;DHT22;30969;51.052;17.056;2023-08-24T12:34:34;27.00;45.10
45233;DHT22;30969;51.052;17.056;2023-08-24T12:39:38;27.10;44.70
45233;DHT22;30969;51.052;17.056;2023-08-24T12:44:42;27.30;44.80
45233;DHT22;30969;51.052;17.056;2023-08-24T12:49:46;27.50;44.20
45233;DHT22;30969;51.052;17.056;2023-08-24T12:54:51;27.60;43.60
45233;DHT22;30969;51.052;17.056;2023-08-24T12:59:54;27.80;42.90
45233;DHT22;30969;51.052;17.056;2023-08-24T13:04:57;27.90;42.40
45233;DHT22;30969;51.052;17.056;2023-08-24T13:10:05;28.10;41.80
45233;DHT22;30969;51.052;17.056;2023-08-24T13:15:09;28.20;41.20
45233;DHT22;30969;51.052;17.056;2023-08-24T13:20:13;28.40;40.70
45233;DHT22;30969;51.052;17.056;2023-08-24T13:25:18;28.50;40.40
45233;DHT22;30969;51.052;17.056;2023-08-24T13:30:21;28.60;40.00
45233;DHT22;30969;51.052;17.056;2023-08-24T13:35:24;28.80;40.20
45233;DHT22;30969;51.052;17.056;2023-08-24T13:40:29;28.80;40.10
45233;DHT22;30969;51.052;17.056;2023-08-24T13:45:33;29.00;39.60
45233;DHT22;30969;51.052;17.056;2023-08-24T13:50:37;29.10;39.70
45233;DHT22;30969;51.052;17.056;2023-08-24T13:55:42;29.30;39.50
45233;DHT22;30969;51.052;17.056;2023-08-24T14:00:45;29.40;38.70
45233;DHT22;30969;51.052;17.056;2023-08-24T14:05:48;29.50;38.80
45233;DHT22;30969;51.052;17.056;2023-08-24T14:10:54;29.70;38.70
45233;DHT22;30969;51.052;17.056;2023-08-24T14:15:57;29.80;38.80
45233;DHT22;30969;51.052;17.056;2023-08-24T14:21:01;29.90;38.60
45233;DHT22;30969;51.052;17.056;2023-08-24T14:26:06;30.10;38.80
45233;DHT22;30969;51.052;17.056;2023-08-24T14:31:09;30.30;38.80
45233;DHT22;30969;51.052;17.056;2023-08-24T14:36:13;30.40;38.60
45233;DHT22;30969;51.052;17.056;2023-08-24T14:41:18;30.60;38.50
45233;DHT22;30969;51.052;17.056;2023-08-24T14:46:21;30.80;38.50
45233;DHT22;30969;51.052;17.056;2023-08-24T14:51:25;31.00;37.80
45233;DHT22;30969;51.052;17.056;2023-08-24T14:56:30;31.20;37.10
45233;DHT22;30969;51.052;17.056;2023-08-24T15:01:33;31.40;36.40
45233;DHT22;30969;51.052;17.056;2023-08-24T15:06:36;31.60;35.80
45233;DHT22;30969;51.052;17.056;2023-08-24T15:11:41;31.80;35.40
45233;DHT22;30969;51.052;17.056;2023-08-24T15:16:44;31.90;34.90
45233;DHT22;30969;51.052;17.056;2023-08-24T15:21:48;32.00;34.70
45233;DHT22;30969;51.052;17.056;2023-08-24T15:26:53;32.20;34.40
45233;DHT22;30969;51.052;17.056;2023-08-24T15:31:58;32.30;34.70
45233;DHT22;30969;51.052;17.056;2023-08-24T15:37:01;32.40;34.90
45233;DHT22;30969;51.052;17.056;2023-08-24T15:42:07;32.50;34.70
45233;DHT22;30969;51.052;17.056;2023-08-24T15:47:11;32.60;34.80
45233;DHT22;30969;51.052;17.056;2023-08-24T15:52:14;32.70;34.60
45233;DHT22;30969;51.052;17.056;2023-08-24T15:57:19;32.70;35.00
45233;DHT22;30969;51.052;17.056;2023-08-24T16:02:22;32.70;34.80
45233;DHT22;30969;51.052;17.056;2023-08-24T16:07:26;32.70;34.20
45233;DHT22;30969;51.052;17.056;2023-08-24T16:12:30;32.70;34.60
45233;DHT22;30969;51.052;17.056;2023-08-24T16:17:34;32.70;34.60
45233;DHT22;30969;51.052;17.056;2023-08-24T16:22:38;32.60;34.30
45233;DHT22;30969;51.052;17.056;2023-08-24T16:27:42;32.50;34.00
45233;DHT22;30969;51.052;17.056;2023-08-24T16:32:46;32.50;34.00
45233;DHT22;30969;51.052;17.056;2023-08-24T16:37:50;32.40;34.30
45233;DHT22;30969;51.052;17.056;2023-08-24T16:42:55;32.30;34.40
45233;DHT22;30969;51.052;17.056;2023-08-24T16:47:59;32.20;34.60
45233;DHT22;30969;51.052;17.056;2023-08-24T16:53:03;32.10;34.90
45233;DHT22;30969;51.052;17.056;2023-08-24T16:58:08;31.90;35.00
45233;DHT22;30969;51.052;17.056;2023-08-24T17:03:11;31.80;35.00
45233;DHT22;30969;51.052;17.056;2023-08-24T17:08:14;31.80;35.30
45233;DHT22;30969;51.052;17.056;2023-08-24T17:13:19;31.60;35.20
45233;DHT22;30969;51.052;17.056;2023-08-24T17:18:23;31.50;35.30
45233;DHT22;30969;51.052;17.056;2023-08-24T17:23:26;31.40;35.40
45233;DHT22;30969;51.052;17.056;2023-08-24T17:28:31;31.30;35.50
45233;DHT22;30969;51.052;17.056;2023-08-24T17:33:34;31.10;35.50
45233;DHT22;30969;51.052;17.056;2023-08-24T17:38:38;31.00;35.80
45233;DHT22;30969;51.052;17.056;2023-08-24T17:43:43;30.90;35.90
45233;DHT22;30969;51.052;17.056;2023-08-24T17:48:47;30.70;36.00
45233;DHT22;30969;51.052;17.056;2023-08-24T17:53:50;30.60;36.00
45233;DHT22;30969;51.052;17.056;2023-08-24T17:58:55;30.50;36.20
45233;DHT22;30969;51.052;17.056;2023-08-24T18:03:59;30.40;36.30
45233;DHT22;30969;51.052;17.056;2023-08-24T18:09:02;30.20;36.40
45233;DHT22;30969;51.052;17.056;2023-08-24T18:14:10;30.10;36.50
45233;DHT22;30969;51.052;17.056;2023-08-24T18:19:13;30.00;36.70
45233;DHT22;30969;51.052;17.056;2023-08-24T18:24:17;29.90;36.90
45233;DHT22;30969;51.052;17.056;2023-08-24T18:29:23;29.80;37.10
45233;DHT22;30969;51.052;17.056;2023-08-24T18:34:26;29.70;37.40
45233;DHT22;30969;51.052;17.056;2023-08-24T18:39:30;29.60;37.50
45233;DHT22;30969;51.052;17.056;2023-08-24T18:44:35;29.50;37.70
45233;DHT22;30969;51.052;17.056;2023-08-24T18:49:39;29.40;37.80
45233;DHT22;30969;51.052;17.056;2023-08-24T18:54:42;29.30;38.00
45233;DHT22;30969;51.052;17.056;2023-08-24T18:59:48;29.20;38.10
45233;DHT22;30969;51.052;17.056;2023-08-24T19:04:52;29.20;38.30
45233;DHT22;30969;51.052;17.056;2023-08-24T19:09:55;29.00;38.50
45233;DHT22;30969;51.052;17.056;2023-08-24T19:15:00;29.00;38.60
45233;DHT22;30969;51.052;17.056;2023-08-24T19:20:03;28.90;38.60
45233;DHT22;30969;51.052;17.056;2023-08-24T19:25:07;28.80;38.80
45233;DHT22;30969;51.052;17.056;2023-08-24T19:30:13;28.70;38.90
45233;DHT22;30969;51.052;17.056;2023-08-24T19:35:16;28.60;39.00
45233;DHT22;30969;51.052;17.056;2023-08-24T19:40:19;28.50;39.10
45233;DHT22;30969;51.052;17.056;2023-08-24T19:45:24;28.50;39.30
45233;DHT22;30969;51.052;17.056;2023-08-24T19:50:28;28.40;39.40
45233;DHT22;30969;51.052;17.056;2023-08-24T19:55:31;28.30;39.50
45233;DHT22;30969;51.052;17.056;2023-08-24T20:00:35;28.20;39.60
45233;DHT22;30969;51.052;17.056;2023-08-24T20:05:39;28.10;39.70
45233;DHT22;30969;51.052;17.056;2023-08-24T20:10:42;28.00;39.80
45233;DHT22;30969;51.052;17.056;2023-08-24T20:15:47;28.00;40.10
45233;DHT22;30969;51.052;17.056;2023-08-24T20:20:50;27.90;40.20
45233;DHT22;30969;51.052;17.056;2023-08-24T20:25:54;27.80;40.30
45233;DHT22;30969;51.052;17.056;2023-08-24T20:31:00;27.70;40.30
45233;DHT22;30969;51.052;17.056;2023-08-24T20:36:04;27.60;40.40
45233;DHT22;30969;51.052;17.056;2023-08-24T20:41:07;27.60;40.60
45233;DHT22;30969;51.052;17.056;2023-08-24T20:46:12;27.50;40.70
45233;DHT22;30969;51.052;17.056;2023-08-24T20:51:16;27.40;40.80
45233;DHT22;30969;51.052;17.056;2023-08-24T20:56:19;27.30;40.90
45233;DHT22;30969;51.052;17.056;2023-08-24T21:01:24;27.30;41.00
45233;DHT22;30969;51.052;17.056;2023-08-24T21:06:28;27.20;41.10
45233;DHT22;30969;51.052;17.056;2023-08-24T21:11:32;27.10;41.40
45233;DHT22;30969;51.052;17.056;2023-08-24T21:16:37;27.00;41.40
45233;DHT22;30969;51.052;17.056;2023-08-24T21:21:40;27.00;41.70
45233;DHT22;30969;51.052;17.056;2023-08-24T21:26:44;26.90;41.70
45233;DHT22;30969;51.052;17.056;2023-08-24T21:31:48;26.90;41.80
45233;DHT22;30969;51.052;17.056;2023-08-24T21:36:52;26.80;41.80
45233;DHT22;30969;51.052;17.056;2023-08-24T21:41:55;26.70;41.80
45233;DHT22;30969;51.052;17.056;2023-08-24T21:47:02;26.70;42.10
45233;DHT22;30969;51.052;17.056;2023-08-24T21:52:05;26.60;42.20
45233;DHT22;30969;51.052;17.056;2023-08-24T21:57:08;26.60;42.30
45233;DHT22;30969;51.052;17.056;2023-08-24T22:02:13;26.50;42.50
45233;DHT22;30969;51.052;17.056;2023-08-24T22:07:16;26.40;42.60
45233;DHT22;30969;51.052;17.056;2023-08-24T22:12:20;26.30;42.70
45233;DHT22;30969;51.052;17.056;2023-08-24T22:17:25;26.20;42.80
45233;DHT22;30969;51.052;17.056;2023-08-24T22:22:30;26.10;43.00
45233;DHT22;30969;51.052;17.056;2023-08-24T22:27:33;26.00;43.20
45233;DHT22;30969;51.052;17.056;2023-08-24T22:32:38;25.90;43.20
45233;DHT22;30969;51.052;17.056;2023-08-24T22:37:42;25.80;43.40
45233;DHT22;30969;51.052;17.056;2023-08-24T22:42:45;25.70;43.40
45233;DHT22;30969;51.052;17.056;2023-08-24T22:47:50;25.70;43.50
45233;DHT22;30969;51.052;17.056;2023-08-24T22:52:54;25.70;43.70
45233;DHT22;30969;51.052;17.056;2023-08-24T22:57:57;25.60;43.80
45233;DHT22;30969;51.052;17.056;2023-08-24T23:03:02;25.50;43.80
45233;DHT22;30969;51.052;17.056;2023-08-24T23:08:06;25.50;44.00
45233;DHT22;30969;51.052;17.056;2023-08-24T23:13:10;25.40;44.10
45233;DHT22;30969;51.052;17.056;2023-08-24T23:18:14;25.40;44.20
45233;DHT22;30969;51.052;17.056;2023-08-24T23:23:18;25.30;44.30
45233;DHT22;30969;51.052;17.056;2023-08-24T23:28:21;25.20;44.40
45233;DHT22;30969;51.052;17.056;2023-08-24T23:33:26;25.20;44.60
45233;DHT22;30969;51.052;17.056;2023-08-24T23:38:29;25.20;44.70
45233;DHT22;30969;51.052;17.056;2023-08-24T23:43:32;25.10;44.70
45233;DHT22;30969;51.052;17.056;2023-08-24T23:48:37;25.00;45.00
45233;DHT22;30969;51.052;17.056;2023-08-24T23:53:41;25.00;45.00
45233;DHT22;30969;51.052;17.056;2023-08-24T23:58:45;24.90;45.20
